Time;durP1;ratioP1;P1;durP2;ratioP2;P2;SDS_P1;SDS_P2;PMS_P1;PMS_P2;Temp;Humidity;BMP_temperature;BMP_pressure;BME280_temperature;BME280_humidity;BME280_pressure;Samples;Min_cycle;Max_cycle;Signal;HPM_P1;HPM_P2
2023/08/31 00:01:35;;;;;;;3.95;3.13;;;;;;;13.76;100.00;100581.31;4992437;28;20053;-81
2023/08/31 00:04:01;;;;;;;3.85;1.80;;;;;;;13.60;100.00;100574.13;5018802;28;20025;-81
2023/08/31 00:06:26;;;;;;;2.45;1.67;;;;;;;13.58;100.00;100576.56;5023475;28;20032;-81
2023/08/31 00:08:51;;;;;;;6.72;2.17;;;;;;;13.48;100.00;100571.75;5014815;28;20040;-82
2023/08/31 00:11:17;;;;;;;2.47;1.30;;;;;;;13.44;100.00;100565.34;5005120;28;20596;-82
2023/08/31 00:13:42;;;;;;;3.72;1.67;;;;;;;13.59;100.00;100566.09;5003740;28;20561;-82
2023/08/31 00:16:09;;;;;;;3.28;1.40;;;;;;;13.56;100.00;100570.53;5005120;28;20057;-82
2023/08/31 00:18:35;;;;;;;3.38;1.60;;;;;;;13.58;100.00;100570.94;5019304;28;20091;-82
2023/08/31 00:21:02;;;;;;;3.42;2.10;;;;;;;13.68;100.00;100574.09;5013989;28;20057;-81
2023/08/31 00:23:27;;;;;;;2.08;1.50;;;;;;;13.57;100.00;100572.13;5017634;28;20448;-81
2023/08/31 00:25:53;;;;;;;5.38;1.75;;;;;;;13.74;100.00;100578.09;5016198;28;20026;-80
2023/08/31 00:28:19;;;;;;;6.25;1.95;;;;;;;13.65;100.00;100584.16;5021381;28;20478;-80
2023/08/31 00:30:44;;;;;;;5.90;2.03;;;;;;;13.58;100.00;100582.19;4998539;28;20029;-80
2023/08/31 00:33:11;;;;;;;5.35;2.25;;;;;;;13.61;100.00;100572.91;5018917;28;20029;-80
2023/08/31 00:35:37;;;;;;;3.25;2.15;;;;;;;13.50;100.00;100572.16;5014074;28;20121;-80
2023/08/31 00:38:04;;;;;;;3.83;2.17;;;;;;;13.39;100.00;100574.19;5002202;28;20620;-80
2023/08/31 00:40:31;;;;;;;2.65;1.98;;;;;;;13.60;100.00;100579.75;5017020;28;20053;-80
2023/08/31 00:42:56;;;;;;;6.57;1.92;;;;;;;13.71;100.00;100590.97;4999788;28;20030;-81
2023/08/31 00:45:23;;;;;;;6.35;3.20;;;;;;;13.60;100.00;100593.81;5016715;28;20064;-80
2023/08/31 00:47:49;;;;;;;2.97;2.10;;;;;;;13.64;100.00;100602.25;4993468;28;21572;-80
2023/08/31 00:50:19;;;;;;;4.65;2.33;;;;;;;13.37;100.00;100599.91;5016948;28;20554;-80
2023/08/31 00:52:44;;;;;;;4.60;2.70;;;;;;;13.31;100.00;100600.72;4996964;28;20185;-79
2023/08/31 00:55:10;;;;;;;5.72;2.75;;;;;;;13.38;100.00;100601.47;5012295;28;20864;-79
2023/08/31 00:57:36;;;;;;;7.78;3.63;;;;;;;13.22;100.00;100593.47;5015697;28;20112;-80
2023/08/31 01:00:01;;;;;;;3.90;3.00;;;;;;;13.18;100.00;100575.78;5013041;28;20130;-79
2023/08/31 01:02:41;;;;;;;4.72;3.55;;;;;;;12.95;100.00;100561.38;5012575;28;20037;-79
2023/08/31 01:05:10;;;;;;;5.05;3.33;;;;;;;12.96;100.00;100558.13;5016206;28;20025;-79
2023/08/31 01:07:54;;;;;;;7.03;3.35;;;;;;;12.93;100.00;100547.72;4999818;28;20061;-79
2023/08/31 01:10:40;;;;;;;5.45;3.30;;;;;;;13.16;100.00;100550.09;5020230;28;20051;-79
2023/08/31 01:13:13;;;;;;;4.05;2.40;;;;;;;13.07;100.00;100540.47;5020877;28;20438;-78
2023/08/31 01:15:48;;;;;;;3.72;2.90;;;;;;;13.15;100.00;100551.28;5018433;28;20041;-79
2023/08/31 01:18:17;;;;;;;3.20;2.40;;;;;;;13.12;100.00;100542.88;5017662;28;20512;-79
2023/08/31 01:20:58;;;;;;;3.80;2.90;;;;;;;13.29;100.00;100546.91;5004924;28;20037;-78
2023/08/31 01:23:34;;;;;;;6.30;2.30;;;;;;;13.44;100.00;100530.81;5017155;28;20494;-79
2023/08/31 01:26:01;;;;;;;4.97;2.40;;;;;;;13.27;100.00;100533.22;4999621;28;20072;-79
2023/08/31 01:28:27;;;;;;;5.28;2.00;;;;;;;13.11;100.00;100539.28;5026194;28;20028;-79
2023/08/31 01:30:52;;;;;;;2.30;1.80;;;;;;;13.27;100.00;100544.47;5028485;28;20037;-79
2023/08/31 01:33:17;;;;;;;3.15;1.67;;;;;;;13.26;100.00;100542.03;5021020;28;20366;-79
2023/08/31 01:35:52;;;;;;;2.80;1.65;;;;;;;13.35;100.00;100546.09;5023387;28;20018;-79
2023/08/31 01:38:25;;;;;;;1.95;1.50;;;;;;;13.25;100.00;100540.47;5017791;28;20037;-80
2023/08/31 01:41:05;;;;;;;2.03;1.50;;;;;;;13.37;100.00;100540.06;5026218;28;20036;-79
2023/08/31 01:43:33;;;;;;;2.03;1.83;;;;;;;13.31;100.00;100539.66;5018636;28;20393;-80
2023/08/31 01:45:59;;;;;;;2.65;1.52;;;;;;;13.41;100.00;100538.84;5019581;28;20091;-79
2023/08/31 01:48:25;;;;;;;3.15;1.60;;;;;;;13.47;100.00;100539.25;5018962;28;20087;-79
2023/08/31 01:50:50;;;;;;;3.15;1.55;;;;;;;13.29;100.00;100528.03;5000545;28;20033;-80
2023/08/31 01:53:15;;;;;;;4.95;2.22;;;;;;;13.08;100.00;100520.41;5020872;28;21720;-80
2023/08/31 01:55:41;;;;;;;4.05;2.35;;;;;;;13.05;100.00;100526.84;4998682;28;20040;-80
2023/08/31 01:58:07;;;;;;;5.93;2.88;;;;;;;12.99;100.00;100517.22;5020333;28;20034;-80
2023/08/31 02:00:34;;;;;;;4.47;2.70;;;;;;;13.07;100.00;100515.19;5021669;28;20034;-81
2023/08/31 02:03:00;;;;;;;5.20;2.13;;;;;;;12.90;100.00;100517.63;5018321;28;20026;-79
2023/08/31 02:05:26;;;;;;;2.25;1.60;;;;;;;13.07;100.00;100530.06;5020170;28;20037;-79
2023/08/31 02:07:51;;;;;;;2.95;2.10;;;;;;;13.04;100.00;100525.22;5002800;28;20095;-79
2023/08/31 02:10:16;;;;;;;5.88;2.75;;;;;;;12.71;100.00;100524.47;5022454;28;20509;-79
2023/08/31 02:12:42;;;;;;;2.63;2.22;;;;;;;12.87;100.00;100528.88;5025616;28;20100;-80
2023/08/31 02:15:08;;;;;;;3.33;2.53;;;;;;;12.74;100.00;100534.88;5028882;28;20047;-79
2023/08/31 02:17:34;;;;;;;3.05;2.33;;;;;;;12.77;100.00;100534.06;5016545;28;20035;-79
2023/08/31 02:20:01;;;;;;;3.28;2.58;;;;;;;12.60;100.00;100534.88;5022505;28;20041;-79
2023/08/31 02:22:26;;;;;;;3.95;2.70;;;;;;;12.71;100.00;100535.69;5026000;28;20037;-80
2023/08/31 02:24:52;;;;;;;3.60;2.83;;;;;;;12.76;100.00;100532.47;5021014;28;20068;-79
2023/08/31 02:27:17;;;;;;;8.88;3.80;;;;;;;12.83;100.00;100534.47;5028115;28;20083;-80
2023/08/31 02:29:43;;;;;;;7.53;4.43;;;;;;;12.76;100.00;100538.09;5018382;28;20026;-79
2023/08/31 02:32:08;;;;;;;5.15;3.80;;;;;;;12.67;100.00;100546.13;5019178;28;20028;-79
2023/08/31 02:34:34;;;;;;;4.43;3.33;;;;;;;12.64;100.00;100535.69;5016109;28;20033;-79
2023/08/31 02:36:59;;;;;;;4.53;2.97;;;;;;;12.88;100.00;100538.88;5024718;28;20389;-79
2023/08/31 02:39:25;;;;;;;4.03;2.97;;;;;;;12.89;100.00;100541.31;5022527;28;20029;-79
2023/08/31 02:41:50;;;;;;;3.60;2.72;;;;;;;12.92;100.00;100545.31;5019832;28;20029;-79
2023/08/31 02:44:15;;;;;;;3.95;3.00;;;;;;;12.78;100.00;100535.69;5024513;28;20041;-79
2023/08/31 02:46:41;;;;;;;3.17;2.75;;;;;;;12.59;100.00;100550.13;5002942;28;20147;-79
2023/08/31 02:49:06;;;;;;;3.67;2.70;;;;;;;12.55;100.00;100549.31;5019749;28;20434;-80
2023/08/31 02:51:32;;;;;;;4.90;3.30;;;;;;;12.65;100.00;100542.91;4997446;28;21495;-79
2023/08/31 02:53:57;;;;;;;3.63;2.83;;;;;;;12.63;100.00;100544.50;5019776;28;20033;-79
2023/08/31 02:56:22;;;;;;;3.40;2.65;;;;;;;12.68;100.00;100546.91;5012927;28;20083;-79
2023/08/31 02:58:48;;;;;;;3.13;2.50;;;;;;;12.70;100.00;100550.94;5018810;28;20260;-79
2023/08/31 03:01:14;;;;;;;4.40;3.08;;;;;;;12.71;100.00;100534.88;5000970;28;20057;-79
2023/08/31 03:03:40;;;;;;;3.13;1.90;;;;;;;12.69;100.00;100538.09;5016254;28;20033;-79
2023/08/31 03:06:08;;;;;;;3.33;2.03;;;;;;;12.71;100.00;100541.31;5021943;28;20052;-79
2023/08/31 03:08:33;;;;;;;3.28;2.40;;;;;;;12.58;100.00;100542.91;5017701;28;20478;-79
2023/08/31 03:10:59;;;;;;;2.63;2.08;;;;;;;12.44;100.00;100540.06;5019544;28;20093;-79
2023/08/31 03:13:24;;;;;;;2.75;1.83;;;;;;;12.57;100.00;100542.09;5021228;28;20777;-79
2023/08/31 03:15:49;;;;;;;4.13;2.15;;;;;;;12.60;100.00;100534.88;5001136;28;20025;-78
2023/08/31 03:18:15;;;;;;;3.97;2.13;;;;;;;12.55;100.00;100535.28;5011569;28;20405;-79
2023/08/31 03:20:40;;;;;;;2.10;1.40;;;;;;;12.68;100.00;100544.91;5019393;28;20142;-79
2023/08/31 03:23:05;;;;;;;3.50;1.80;;;;;;;12.61;100.00;100542.13;5013510;28;20034;-80
2023/08/31 03:25:31;;;;;;;1.92;1.55;;;;;;;12.76;100.00;100546.53;5003429;28;20030;-80
2023/08/31 03:27:56;;;;;;;4.22;2.08;;;;;;;12.78;100.00;100549.72;5021805;28;20029;-80
2023/08/31 03:30:22;;;;;;;7.07;2.40;;;;;;;12.60;100.00;100551.72;4999549;28;20033;-80
2023/08/31 03:32:47;;;;;;;3.22;1.70;;;;;;;12.68;100.00;100553.34;5017888;28;20037;-81
2023/08/31 03:35:13;;;;;;;3.80;1.42;;;;;;;12.45;100.00;100547.31;5016799;28;20041;-80
2023/08/31 03:37:38;;;;;;;3.92;1.42;;;;;;;12.29;100.00;100537.25;4999248;28;20037;-80
2023/08/31 03:40:06;;;;;;;3.25;1.85;;;;;;;12.29;100.00;100537.25;5018125;28;20029;-79
2023/08/31 03:42:31;;;;;;;3.80;1.63;;;;;;;12.32;100.00;100538.47;5019364;28;20064;-80
2023/08/31 03:44:57;;;;;;;3.53;1.50;;;;;;;12.28;100.00;100530.03;5001306;28;20065;-80
2023/08/31 03:47:22;;;;;;;2.42;2.03;;;;;;;12.31;100.00;100534.84;5002079;28;20042;-80
2023/08/31 03:49:48;;;;;;;3.60;1.90;;;;;;;12.50;100.00;100541.28;5020350;28;20116;-81
2023/08/31 03:52:13;;;;;;;1.98;1.40;;;;;;;12.35;100.00;100541.28;5015240;28;20124;-80
2023/08/31 03:54:38;;;;;;;4.22;1.70;;;;;;;12.40;100.00;100531.66;5016309;28;20128;-80
2023/08/31 03:57:04;;;;;;;2.75;1.83;;;;;;;12.44;100.00;100528.84;5017514;28;20501;-81
2023/08/31 03:59:29;;;;;;;4.63;2.42;;;;;;;12.51;100.00;100531.66;5019214;28;20432;-81
2023/08/31 04:01:55;;;;;;;4.03;2.15;;;;;;;12.35;100.00;100535.66;5022923;28;20032;-80
2023/08/31 04:04:20;;;;;;;3.15;2.30;;;;;;;12.32;100.00;100536.44;5016802;28;20116;-80
2023/08/31 04:06:46;;;;;;;5.75;2.03;;;;;;;12.44;100.00;100554.09;5004383;28;20297;-81
2023/08/31 04:09:11;;;;;;;2.40;2.20;;;;;;;12.31;100.00;100542.47;5018098;28;20045;-80
2023/08/31 04:11:37;;;;;;;3.50;2.15;;;;;;;12.46;100.00;100552.53;5001624;28;20592;-80
2023/08/31 04:14:02;;;;;;;3.20;2.20;;;;;;;12.51;100.00;100552.13;5016837;28;20395;-80
2023/08/31 04:16:28;;;;;;;5.90;1.70;;;;;;;12.32;100.00;100552.50;5014173;28;20494;-81
2023/08/31 04:18:54;;;;;;;4.47;2.28;;;;;;;12.32;100.00;100558.91;5005726;28;20040;-81
2023/08/31 04:21:20;;;;;;;2.50;1.92;;;;;;;12.40;100.00;100554.13;5025986;28;20124;-80
2023/08/31 04:23:45;;;;;;;4.32;2.25;;;;;;;12.60;100.00;100572.16;5006909;28;20071;-80
2023/08/31 04:26:12;;;;;;;3.05;2.08;;;;;;;12.52;100.00;100566.94;5026079;28;20500;-81
2023/08/31 04:28:39;;;;;;;5.95;2.63;;;;;;;12.50;100.00;100572.16;5026063;28;20056;-81
2023/08/31 04:31:05;;;;;;;2.80;1.98;;;;;;;12.53;100.00;100574.97;5009717;28;20474;-80
2023/08/31 04:33:30;;;;;;;2.53;2.15;;;;;;;12.56;100.00;100571.38;5004509;28;20027;-80
2023/08/31 04:35:56;;;;;;;2.85;1.85;;;;;;;12.55;100.00;100575.38;5025774;28;20030;-80
2023/08/31 04:38:22;;;;;;;3.97;2.10;;;;;;;12.54;100.00;100581.38;5028074;28;20390;-80
2023/08/31 04:40:48;;;;;;;3.30;2.40;;;;;;;12.57;100.00;100577.81;5025138;28;20383;-80
2023/08/31 04:43:13;;;;;;;6.03;2.33;;;;;;;12.60;100.00;100583.41;5023223;28;20119;-80
2023/08/31 04:45:39;;;;;;;4.47;2.92;;;;;;;12.57;100.00;100580.59;5023158;28;20489;-80
2023/08/31 04:48:04;;;;;;;3.63;2.13;;;;;;;12.59;100.00;100572.59;5003700;28;20082;-80
2023/08/31 04:50:30;;;;;;;3.28;2.38;;;;;;;12.59;100.00;100569.78;5023106;28;20037;-81
2023/08/31 04:52:55;;;;;;;3.15;2.58;;;;;;;12.48;100.00;100578.19;5023506;28;20043;-80
2023/08/31 04:55:22;;;;;;;4.38;2.22;;;;;;;12.58;100.00;100577.38;5021725;28;20033;-80
2023/08/31 04:57:47;;;;;;;4.65;2.45;;;;;;;12.60;100.00;100577.78;5003461;28;20112;-80
2023/08/31 05:00:13;;;;;;;10.40;2.47;;;;;;;12.71;100.00;100583.44;5019418;28;20039;-81
2023/08/31 05:02:39;;;;;;;2.35;2.05;;;;;;;12.68;100.00;100587.03;5016966;28;20037;-80
2023/08/31 05:05:05;;;;;;;4.63;2.60;;;;;;;12.43;100.00;100591.81;4999897;28;20128;-80
2023/08/31 05:07:30;;;;;;;3.30;2.33;;;;;;;12.59;100.00;100589.44;4998951;28;20036;-81
2023/08/31 05:09:56;;;;;;;3.47;2.70;;;;;;;12.55;100.00;100594.25;5018644;28;20029;-81
2023/08/31 05:12:22;;;;;;;5.03;2.67;;;;;;;12.61;100.00;100601.06;5017056;28;20033;-80
2023/08/31 05:14:47;;;;;;;2.55;2.35;;;;;;;12.58;100.00;100593.44;4999278;28;20123;-80
2023/08/31 05:17:12;;;;;;;7.22;3.00;;;;;;;12.70;100.00;100601.47;5019897;28;20477;-80
2023/08/31 05:19:38;;;;;;;6.40;3.25;;;;;;;12.58;100.00;100604.66;5021378;28;20056;-80
2023/08/31 05:22:03;;;;;;;4.55;3.00;;;;;;;12.59;100.00;100606.28;5016509;28;20064;-80
2023/08/31 05:24:29;;;;;;;5.07;3.15;;;;;;;12.63;100.00;100617.50;5017392;28;20024;-81
2023/08/31 05:26:54;;;;;;;5.90;3.25;;;;;;;12.59;100.00;100618.31;5003993;28;20124;-80
2023/08/31 05:29:19;;;;;;;3.95;3.03;;;;;;;12.68;100.00;100617.91;5021138;28;20021;-80
2023/08/31 05:31:45;;;;;;;4.88;3.30;;;;;;;12.70;100.00;100623.94;5025214;28;20029;-80
2023/08/31 05:34:10;;;;;;;3.05;2.50;;;;;;;12.61;100.00;100631.97;5026136;28;20515;-81
2023/08/31 05:36:36;;;;;;;8.65;3.13;;;;;;;12.62;100.00;100630.75;5024448;28;20039;-81
2023/08/31 05:39:02;;;;;;;7.57;3.03;;;;;;;12.56;100.00;100635.94;5025573;28;20025;-81
2023/08/31 05:41:28;;;;;;;6.13;2.55;;;;;;;12.63;100.00;100628.72;5001354;28;20370;-81
2023/08/31 05:43:53;;;;;;;6.78;3.08;;;;;;;12.69;100.00;100635.56;5021779;28;20037;-80
2023/08/31 05:46:19;;;;;;;3.45;2.50;;;;;;;12.62;100.00;100636.38;5015579;28;20041;-80
2023/08/31 05:48:44;;;;;;;5.35;2.63;;;;;;;12.62;100.00;100639.16;5005161;28;20033;-81
2023/08/31 05:51:10;;;;;;;4.38;2.33;;;;;;;12.60;100.00;100642.38;5008016;28;20456;-80
2023/08/31 05:53:35;;;;;;;5.47;2.65;;;;;;;12.66;100.00;100645.59;5023942;28;20075;-80
2023/08/31 05:56:03;;;;;;;4.20;2.78;;;;;;;12.64;100.00;100644.41;5000426;28;20419;-80
2023/08/31 05:58:33;;;;;;;7.38;2.85;;;;;;;12.55;100.00;100644.78;5019879;28;20390;-80
2023/08/31 06:01:00;;;;;;;4.32;2.65;;;;;;;12.59;100.00;100645.59;5002357;28;20065;-80
2023/08/31 06:03:25;;;;;;;3.15;2.60;;;;;;;12.58;100.00;100644.78;5023373;28;20071;-80
2023/08/31 06:05:51;;;;;;;3.75;2.22;;;;;;;12.79;100.00;100649.63;4997285;28;20033;-81
2023/08/31 06:08:16;;;;;;;4.47;2.65;;;;;;;12.80;100.00;100659.66;5016611;28;20397;-81
2023/08/31 06:10:41;;;;;;;4.57;2.42;;;;;;;12.65;100.00;100658.03;5003693;28;20028;-80
2023/08/31 06:13:07;;;;;;;3.70;2.75;;;;;;;12.84;100.00;100667.28;5017691;28;20533;-80
2023/08/31 06:15:32;;;;;;;4.55;2.10;;;;;;;12.78;100.00;100670.50;5017981;28;20588;-80
2023/08/31 06:17:58;;;;;;;6.75;3.75;;;;;;;12.87;100.00;100670.09;5019840;28;20497;-80
2023/08/31 06:20:23;;;;;;;3.67;2.40;;;;;;;12.80;100.00;100668.09;5018058;28;20545;-80
2023/08/31 06:22:49;;;;;;;3.60;2.33;;;;;;;12.86;100.00;100676.13;4997406;28;20029;-80
2023/08/31 06:25:18;;;;;;;3.55;2.45;;;;;;;12.78;100.00;100664.09;5021162;28;20072;-80
2023/08/31 06:27:43;;;;;;;10.43;2.67;;;;;;;12.89;100.00;100669.72;5020548;28;20037;-81
2023/08/31 06:30:11;;;;;;;5.65;2.88;;;;;;;12.99;100.00;100674.56;5003889;28;20065;-80
2023/08/31 06:32:37;;;;;;;7.22;2.40;;;;;;;13.00;100.00;100679.75;5017998;28;20675;-81
2023/08/31 06:35:03;;;;;;;2.55;2.08;;;;;;;13.14;100.00;100684.59;5020472;28;20036;-84
2023/08/31 06:37:28;;;;;;;4.18;2.28;;;;;;;13.20;100.00;100685.00;5021304;28;20052;-86
2023/08/31 06:39:53;;;;;;;6.45;2.72;;;;;;;13.30;100.00;100689.03;5006025;28;20040;-88
2023/08/31 06:42:19;;;;;;;3.33;2.30;;;;;;;13.34;100.00;100684.22;5004173;28;20080;-86
2023/08/31 06:44:44;;;;;;;6.50;1.92;;;;;;;13.30;100.00;100686.22;5024243;28;20033;-85
2023/08/31 06:47:10;;;;;;;7.50;2.50;;;;;;;13.39;100.00;100687.44;5019713;28;20552;-86
2023/08/31 06:49:35;;;;;;;3.42;2.47;;;;;;;13.39;100.00;100693.06;5030535;28;20033;-86
2023/08/31 06:52:02;;;;;;;4.53;1.70;;;;;;;13.39;100.00;100690.25;5021336;28;20071;-87
2023/08/31 06:54:27;;;;;;;6.93;2.22;;;;;;;13.40;100.00;100693.88;5010619;28;20029;-87
2023/08/31 06:56:53;;;;;;;4.13;1.70;;;;;;;13.45;100.00;100701.09;5009264;28;20032;-87
2023/08/31 06:59:18;;;;;;;4.93;1.55;;;;;;;13.46;100.00;100705.53;5006997;28;20057;-87
2023/08/31 07:01:43;;;;;;;2.55;1.40;;;;;;;13.39;100.00;100704.31;5020317;28;20029;-86
2023/08/31 07:04:09;;;;;;;3.63;1.70;;;;;;;13.46;100.00;100711.16;5018033;28;20037;-85
2023/08/31 07:06:35;;;;;;;2.78;1.55;;;;;;;13.48;100.00;100706.72;4998610;28;20133;-86
2023/08/31 07:09:00;;;;;;;3.30;1.50;;;;;;;13.57;100.00;100715.53;5020398;28;20082;-86
2023/08/31 07:11:27;;;;;;;4.97;1.50;;;;;;;13.60;100.00;100711.94;4999771;28;20481;-86
2023/08/31 07:13:53;;;;;;;1.98;1.00;;;;;;;13.63;100.00;100713.94;5003495;28;20405;-88
2023/08/31 07:16:18;;;;;;;1.48;1.10;;;;;;;13.67;100.00;100719.56;5007596;28;20037;-87
2023/08/31 07:18:43;;;;;;;1.50;1.17;;;;;;;13.62;100.00;100715.16;5008420;28;20029;-86
2023/08/31 07:21:09;;;;;;;3.38;1.10;;;;;;;13.69;100.00;100721.97;5002897;28;20117;-85
2023/08/31 07:23:34;;;;;;;3.25;1.25;;;;;;;13.65;100.00;100721.97;4997344;28;20079;-87
2023/08/31 07:26:01;;;;;;;4.13;1.35;;;;;;;13.71;100.00;100722.38;5002248;28;20052;-86
2023/08/31 07:28:26;;;;;;;2.13;0.88;;;;;;;13.75;100.00;100726.00;5000578;28;20544;-86
2023/08/31 07:31:06;;;;;;;3.63;0.85;;;;;;;13.71;100.00;100726.00;5007855;28;20186;-86
2023/08/31 07:33:32;;;;;;;2.33;1.25;;;;;;;13.70;100.00;100730.00;5017669;28;20028;-86
2023/08/31 07:35:59;;;;;;;5.03;0.95;;;;;;;13.82;100.00;100734.41;5015833;28;20060;-87
2023/08/31 07:38:25;;;;;;;2.05;1.05;;;;;;;13.83;100.00;100733.22;5015750;28;20026;-85
2023/08/31 07:40:51;;;;;;;2.72;0.80;;;;;;;13.86;100.00;100735.22;5002092;28;20065;-86
2023/08/31 07:43:17;;;;;;;5.32;1.23;;;;;;;13.92;100.00;100733.59;5000010;28;20312;-81
2023/08/31 07:45:42;;;;;;;1.98;0.63;;;;;;;13.94;100.00;100734.00;5001841;28;20105;-82
2023/08/31 07:48:07;;;;;;;1.65;0.57;;;;;;;14.02;100.00;100735.59;5001381;28;20045;-82
2023/08/31 07:50:34;;;;;;;1.10;0.70;;;;;;;14.02;100.00;100737.63;5001008;28;20029;-83
2023/08/31 07:52:59;;;;;;;4.47;0.90;;;;;;;14.00;100.00;100742.84;5014470;28;20025;-82
2023/08/31 07:55:25;;;;;;;1.10;0.70;;;;;;;14.08;100.00;100738.78;5011918;28;20030;-84
2023/08/31 07:57:50;;;;;;;2.20;0.70;;;;;;;14.16;100.00;100742.38;4998630;28;20033;-84
2023/08/31 08:00:16;;;;;;;2.40;0.95;;;;;;;14.56;100.00;100745.91;5014598;28;20697;-86
2023/08/31 08:02:41;;;;;;;4.85;1.13;;;;;;;14.66;100.00;100733.78;4995039;28;20026;-86
2023/08/31 08:05:07;;;;;;;1.50;1.08;;;;;;;14.84;100.00;100757.06;4997784;28;20073;-85
2023/08/31 08:07:32;;;;;;;1.42;0.80;;;;;;;14.55;100.00;100750.75;5001842;28;20030;-86
2023/08/31 08:09:59;;;;;;;2.75;1.00;;;;;;;14.53;100.00;100755.16;5022696;28;20058;-85
2023/08/31 08:12:25;;;;;;;1.27;0.90;;;;;;;14.96;100.00;100764.22;5025517;28;20029;-85
2023/08/31 08:14:50;;;;;;;3.92;1.10;;;;;;;15.16;100.00;100781.44;5020727;28;20483;-86
2023/08/31 08:17:16;;;;;;;2.63;1.02;;;;;;;15.13;100.00;100773.00;5001999;28;20032;-88
2023/08/31 08:19:41;;;;;;;3.30;1.00;;;;;;;15.04;100.00;100770.63;5009987;28;20032;-86
2023/08/31 08:22:07;;;;;;;1.05;0.73;;;;;;;15.37;100.00;100771.25;5023380;28;20128;-88
2023/08/31 08:24:32;;;;;;;1.30;0.95;;;;;;;15.53;100.00;100777.16;5021517;28;20077;-88
2023/08/31 08:26:57;;;;;;;3.65;1.30;;;;;;;15.89;100.00;100781.72;5005351;28;20177;-87
2023/08/31 08:29:23;;;;;;;3.85;1.13;;;;;;;16.07;100.00;100785.19;5007937;28;20037;-85
2023/08/31 08:31:48;;;;;;;4.57;1.33;;;;;;;16.05;100.00;100779.16;5012135;28;20140;-87
2023/08/31 08:34:14;;;;;;;2.78;1.02;;;;;;;16.04;100.00;100784.00;5013298;28;20025;-86
2023/08/31 08:36:39;;;;;;;2.22;0.95;;;;;;;15.53;100.00;100782.78;5028558;28;20159;-86
2023/08/31 08:39:04;;;;;;;3.47;0.80;;;;;;;16.35;100.00;100775.63;5008389;28;20568;-86
2023/08/31 08:41:32;;;;;;;1.58;1.13;;;;;;;16.05;100.00;100791.25;5012782;28;20033;-87
2023/08/31 08:44:03;;;;;;;1.90;0.80;;;;;;;16.32;100.00;100792.59;5013890;28;20037;-86
2023/08/31 08:46:31;;;;;;;3.78;1.20;;;;;;;16.05;100.00;100785.59;5019487;28;20188;-85
2023/08/31 08:48:59;;;;;;;1.30;1.00;;;;;;;15.74;100.00;100789.53;5012046;28;20033;-86
2023/08/31 08:51:24;;;;;;;6.05;1.25;;;;;;;16.20;100.00;100783.44;5030438;28;20029;-87
2023/08/31 08:53:50;;;;;;;0.73;0.60;;;;;;;16.25;100.00;100801.94;5004801;28;20049;-87
2023/08/31 08:56:16;;;;;;;2.58;1.10;;;;;;;16.06;100.00;100794.88;5033555;28;20465;-86
2023/08/31 08:58:42;;;;;;;3.97;0.82;;;;;;;15.89;100.00;100810.75;5011504;28;20025;-87
2023/08/31 09:01:08;;;;;;;2.97;1.05;;;;;;;16.31;100.00;100811.56;5011056;28;20389;-88
2023/08/31 09:03:34;;;;;;;2.17;0.82;;;;;;;16.41;100.00;100804.22;5032894;28;20103;-90
2023/08/31 09:06:03;;;;;;;0.98;0.80;;;;;;;16.03;100.00;100801.38;5017233;28;20026;-92
2023/08/31 09:08:29;;;;;;;4.93;1.15;;;;;;;15.83;100.00;100820.88;5013384;28;20037;-91
2023/08/31 09:10:58;;;;;;;3.95;1.00;;;;;;;15.95;100.00;100803.44;5015747;28;20026;-89
2023/08/31 09:13:28;;;;;;;4.45;2.10;;;;;;;15.89;100.00;100807.94;5004233;28;20043;-89
2023/08/31 09:15:54;;;;;;;3.67;0.82;;;;;;;15.86;100.00;100805.94;4990150;28;20038;-89
2023/08/31 09:18:25;;;;;;;1.50;0.77;;;;;;;16.30;100.00;100797.88;5005472;28;20026;-90
2023/08/31 09:20:51;;;;;;;2.83;1.00;;;;;;;16.46;100.00;100815.88;4984565;28;20030;-89
2023/08/31 09:23:17;;;;;;;3.85;0.90;;;;;;;16.12;100.00;100810.13;4981481;28;20136;-90
2023/08/31 09:25:48;;;;;;;2.47;0.80;;;;;;;15.94;100.00;100806.69;4983988;28;20121;-89
2023/08/31 09:28:14;;;;;;;3.45;0.95;;;;;;;15.96;100.00;100807.88;5008190;28;20026;-90
2023/08/31 09:30:40;;;;;;;2.30;0.80;;;;;;;16.07;100.00;100807.00;5002336;28;20034;-89
2023/08/31 09:33:13;;;;;;;3.30;0.65;;;;;;;16.33;100.00;100809.13;4993480;28;20034;-90
2023/08/31 09:35:52;;;;;;;4.07;0.85;;;;;;;16.21;100.00;100824.59;4989314;28;20034;-89
2023/08/31 09:38:18;;;;;;;6.82;0.90;;;;;;;16.46;100.00;100832.81;4990426;28;20022;-92
2023/08/31 09:40:50;;;;;;;2.38;0.90;;;;;;;15.93;100.00;100802.25;4986714;28;20065;-93
2023/08/31 09:43:21;;;;;;;5.05;1.08;;;;;;;16.05;100.00;100799.72;4990057;28;20026;-92
2023/08/31 09:45:47;;;;;;;3.13;1.00;;;;;;;16.21;100.00;100802.00;5003884;28;20038;-91
2023/08/31 09:48:15;;;;;;;4.80;1.35;;;;;;;16.03;100.00;100813.47;4989599;28;20031;-91
2023/08/31 09:50:43;;;;;;;5.97;1.08;;;;;;;16.03;100.00;100824.75;4993976;28;20034;-92
2023/08/31 09:53:10;;;;;;;3.13;0.93;;;;;;;15.93;100.00;100814.34;5010374;28;20045;-92
2023/08/31 09:55:39;;;;;;;1.33;1.00;;;;;;;15.95;100.00;100820.38;4991519;28;20641;-92
2023/08/31 09:58:07;;;;;;;9.52;1.73;;;;;;;15.93;100.00;100822.03;5002480;28;20018;-91
2023/08/31 10:00:36;;;;;;;3.55;0.90;;;;;;;15.98;100.00;100785.69;4987141;28;20035;-92
2023/08/31 10:03:04;;;;;;;2.63;1.45;;;;;;;16.41;100.00;100807.84;4990799;28;20039;-90
2023/08/31 10:05:31;;;;;;;4.30;1.17;;;;;;;17.06;100.00;100815.56;4988837;28;20382;-91
2023/08/31 10:07:58;;;;;;;4.43;1.20;;;;;;;16.91;100.00;100825.44;5008714;28;20037;-91
2023/08/31 10:10:24;;;;;;;2.38;1.10;;;;;;;16.97;100.00;100820.94;4988447;28;20116;-91
2023/08/31 10:12:51;;;;;;;5.32;1.45;;;;;;;17.02;100.00;100828.97;4998659;28;20546;-91
2023/08/31 10:15:17;;;;;;;5.40;1.23;;;;;;;17.18;100.00;100811.38;5007212;28;20126;-90
2023/08/31 10:17:43;;;;;;;4.40;1.08;;;;;;;17.35;100.00;100809.50;5019417;28;20041;-88
2023/08/31 10:20:11;;;;;;;3.63;1.00;;;;;;;17.18;100.00;100834.81;5008928;28;20037;-93
2023/08/31 10:22:37;;;;;;;4.88;1.30;;;;;;;17.26;100.00;100824.97;5021965;28;20038;-89
2023/08/31 10:25:03;;;;;;;4.68;1.20;;;;;;;17.54;100.00;100839.97;5011694;28;20042;-88
2023/08/31 10:27:39;;;;;;;4.95;1.27;;;;;;;17.59;100.00;100852.81;5008491;28;20036;-88
2023/08/31 10:30:31;;;;;;;3.25;1.33;;;;;;;17.11;100.00;100851.84;5000531;28;20021;-90
2023/08/31 10:33:09;;;;;;;4.00;1.27;;;;;;;17.16;100.00;100848.56;5010619;28;20030;-94
2023/08/31 10:35:42;;;;;;;2.72;1.50;;;;;;;16.92;100.00;100830.69;5009627;28;20059;-92
2023/08/31 10:38:26;;;;;;;4.28;1.23;;;;;;;16.48;100.00;100825.94;5015589;28;20606;-92
2023/08/31 10:41:16;;;;;;;3.30;1.00;;;;;;;16.85;100.00;100831.59;5011094;28;20035;-93
2023/08/31 10:43:49;;;;;;;5.75;1.58;;;;;;;17.13;100.00;100855.06;5012062;28;20112;-92
2023/08/31 10:46:37;;;;;;;4.82;1.42;;;;;;;17.01;100.00;100830.19;5026006;28;20022;-92
2023/08/31 10:49:09;;;;;;;8.23;1.45;;;;;;;17.21;100.00;100838.81;5010812;28;20030;-93
2023/08/31 10:51:34;;;;;;;2.15;1.10;;;;;;;17.12;100.00;100830.84;5025381;28;20030;-93
2023/08/31 10:54:18;;;;;;;6.57;1.20;;;;;;;17.44;100.00;100824.72;5024649;28;20052;-93
2023/08/31 10:57:05;;;;;;;7.15;1.27;;;;;;;17.39;100.00;100838.56;5006112;28;20030;-91
2023/08/31 10:59:45;;;;;;;7.53;1.30;;;;;;;17.53;100.00;100832.69;5021399;28;20084;-90
2023/08/31 11:02:28;;;;;;;3.25;0.85;;;;;;;17.44;100.00;100829.59;5022345;28;20025;-91
2023/08/31 11:04:56;;;;;;;7.35;1.52;;;;;;;17.61;100.00;100834.19;5002381;28;20113;-89
2023/08/31 11:07:26;;;;;;;3.03;1.10;;;;;;;17.93;100.00;100832.91;5017189;28;20426;-89
2023/08/31 11:09:51;;;;;;;3.30;1.00;;;;;;;17.91;100.00;100845.88;4994088;28;20022;-90
2023/08/31 11:12:17;;;;;;;3.42;1.10;;;;;;;17.36;100.00;100839.41;5003788;28;20038;-89
2023/08/31 11:14:42;;;;;;;9.50;2.67;;;;;;;16.84;100.00;100848.97;4996404;28;20038;-84
2023/08/31 11:17:09;;;;;;;10.80;1.73;;;;;;;16.43;100.00;100850.59;5004953;28;20034;-84